sensor_id;sensor_type;location;lat;lon;timestamp;pressure;altitude;pressure_sealevel;temperature;humidity
61035;BME280;46916;40.564;-7.958;2023-07-20T00:01:41;97501.94;;;21.10;68.67
61035;BME280;46916;40.564;-7.958;2023-07-20T00:03:44;97496.59;;;21.10;69.18
61035;BME280;46916;40.564;-7.958;2023-07-20T00:05:45;97500.28;;;21.09;68.76
61035;BME280;46916;40.564;-7.958;2023-07-20T00:07:46;97503.97;;;21.08;69.10
61035;BME280;46916;40.564;-7.958;2023-07-20T00:09:48;97502.53;;;21.05;68.89
61035;BME280;46916;40.564;-7.958;2023-07-20T00:11:49;97502.72;;;21.03;68.84
61035;BME280;46916;40.564;-7.958;2023-07-20T00:13:53;97500.25;;;21.02;69.05
61035;BME280;46916;40.564;-7.958;2023-07-20T00:15:53;97490.81;;;20.99;69.29
61035;BME280;46916;40.564;-7.958;2023-07-20T00:17:54;97496.72;;;20.95;69.30
61035;BME280;46916;40.564;-7.958;2023-07-20T00:19:54;97495.25;;;20.92;69.28
61035;BME280;46916;40.564;-7.958;2023-07-20T00:21:55;97489.94;;;20.92;69.54
61035;BME280;46916;40.564;-7.958;2023-07-20T00:23:55;97488.91;;;20.93;69.25
61035;BME280;46916;40.564;-7.958;2023-07-20T00:25:56;97492.59;;;20.92;69.59
61035;BME280;46916;40.564;-7.958;2023-07-20T00:27:56;97493.81;;;20.90;69.34
61035;BME280;46916;40.564;-7.958;2023-07-20T00:29:57;97484.56;;;20.86;69.56
61035;BME280;46916;40.564;-7.958;2023-07-20T00:31:58;97481.28;;;20.84;69.42
61035;BME280;46916;40.564;-7.958;2023-07-20T00:33:58;97486.81;;;20.82;69.47
61035;BME280;46916;40.564;-7.958;2023-07-20T00:35:59;97483.50;;;20.80;69.67
61035;BME280;46916;40.564;-7.958;2023-07-20T00:37:59;97488.81;;;20.80;69.53
61035;BME280;46916;40.564;-7.958;2023-07-20T00:40:00;97482.25;;;20.76;69.65
61035;BME280;46916;40.564;-7.958;2023-07-20T00:42:00;97487.13;;;20.72;69.93
61035;BME280;46916;40.564;-7.958;2023-07-20T00:44:01;97478.91;;;20.67;69.87
61035;BME280;46916;40.564;-7.958;2023-07-20T00:46:01;97483.41;;;20.67;69.86
61035;BME280;46916;40.564;-7.958;2023-07-20T00:48:03;97486.06;;;20.67;70.06
61035;BME280;46916;40.564;-7.958;2023-07-20T00:50:05;97483.19;;;20.68;70.04
61035;BME280;46916;40.564;-7.958;2023-07-20T00:52:06;97476.25;;;20.67;70.00
61035;BME280;46916;40.564;-7.958;2023-07-20T00:54:07;97470.09;;;20.67;70.11
61035;BME280;46916;40.564;-7.958;2023-07-20T00:56:10;97473.38;;;20.69;69.99
61035;BME280;46916;40.564;-7.958;2023-07-20T00:58:10;97466.22;;;20.69;69.72
61035;BME280;46916;40.564;-7.958;2023-07-20T01:00:11;97473.19;;;20.70;69.78
61035;BME280;46916;40.564;-7.958;2023-07-20T01:02:12;97471.53;;;20.69;69.95
61035;BME280;46916;40.564;-7.958;2023-07-20T01:04:14;97468.06;;;20.69;69.89
61035;BME280;46916;40.564;-7.958;2023-07-20T01:08:33;97468.47;;;20.66;69.49
61035;BME280;46916;40.564;-7.958;2023-07-20T01:10:37;97461.88;;;20.62;69.35
61035;BME280;46916;40.564;-7.958;2023-07-20T01:12:42;97460.63;;;20.58;69.85
61035;BME280;46916;40.564;-7.958;2023-07-20T01:14:43;97456.50;;;20.55;69.99
61035;BME280;46916;40.564;-7.958;2023-07-20T01:16:43;97465.88;;;20.51;70.03
61035;BME280;46916;40.564;-7.958;2023-07-20T01:18:44;97469.72;;;20.48;70.17
61035;BME280;46916;40.564;-7.958;2023-07-20T01:20:45;97473.94;;;20.43;70.47
61035;BME280;46916;40.564;-7.958;2023-07-20T01:27:31;97463.56;;;20.48;70.58
61035;BME280;46916;40.564;-7.958;2023-07-20T01:31:34;97464.03;;;20.51;70.43
61035;BME280;46916;40.564;-7.958;2023-07-20T01:33:36;97464.41;;;20.48;70.19
61035;BME280;46916;40.564;-7.958;2023-07-20T01:35:38;97460.91;;;20.48;70.31
61035;BME280;46916;40.564;-7.958;2023-07-20T01:37:44;97458.44;;;20.46;70.41
61035;BME280;46916;40.564;-7.958;2023-07-20T01:39:46;97456.78;;;20.45;70.44
61035;BME280;46916;40.564;-7.958;2023-07-20T01:41:46;97459.47;;;20.45;70.37
61035;BME280;46916;40.564;-7.958;2023-07-20T01:43:47;97449.63;;;20.46;70.14
61035;BME280;46916;40.564;-7.958;2023-07-20T01:45:49;97454.13;;;20.45;70.15
61035;BME280;46916;40.564;-7.958;2023-07-20T01:47:50;97454.50;;;20.42;70.27
61035;BME280;46916;40.564;-7.958;2023-07-20T01:49:50;97452.22;;;20.39;70.61
61035;BME280;46916;40.564;-7.958;2023-07-20T01:51:51;97447.72;;;20.40;70.47
61035;BME280;46916;40.564;-7.958;2023-07-20T01:53:51;97452.66;;;20.43;70.29
61035;BME280;46916;40.564;-7.958;2023-07-20T01:55:56;97444.69;;;20.43;70.49
61035;BME280;46916;40.564;-7.958;2023-07-20T01:57:56;97442.84;;;20.43;70.84
61035;BME280;46916;40.564;-7.958;2023-07-20T01:59:57;97437.16;;;20.46;70.60
61035;BME280;46916;40.564;-7.958;2023-07-20T02:01:57;97439.25;;;20.51;70.02
61035;BME280;46916;40.564;-7.958;2023-07-20T02:03:58;97439.25;;;20.51;69.95
61035;BME280;46916;40.564;-7.958;2023-07-20T02:05:58;97437.63;;;20.50;70.13
61035;BME280;46916;40.564;-7.958;2023-07-20T02:07:59;97434.16;;;20.49;70.03
61035;BME280;46916;40.564;-7.958;2023-07-20T02:10:00;97434.28;;;20.48;69.89
61035;BME280;46916;40.564;-7.958;2023-07-20T02:12:00;97439.97;;;20.45;69.77
61035;BME280;46916;40.564;-7.958;2023-07-20T02:14:01;97431.84;;;20.46;69.80
61035;BME280;46916;40.564;-7.958;2023-07-20T02:16:01;97437.31;;;20.45;69.97
61035;BME280;46916;40.564;-7.958;2023-07-20T02:18:02;97439.16;;;20.44;70.33
61035;BME280;46916;40.564;-7.958;2023-07-20T02:20:08;97438.56;;;20.42;70.30
61035;BME280;46916;40.564;-7.958;2023-07-20T02:22:10;97444.03;;;20.41;70.63
61035;BME280;46916;40.564;-7.958;2023-07-20T02:24:11;97447.56;;;20.41;70.39
61035;BME280;46916;40.564;-7.958;2023-07-20T02:26:12;97437.09;;;20.40;70.69
61035;BME280;46916;40.564;-7.958;2023-07-20T02:28:15;97437.91;;;20.40;70.61
61035;BME280;46916;40.564;-7.958;2023-07-20T02:30:15;97430.13;;;20.39;70.27
61035;BME280;46916;40.564;-7.958;2023-07-20T02:32:17;97435.06;;;20.42;70.43
61035;BME280;46916;40.564;-7.958;2023-07-20T02:34:17;97436.50;;;20.44;70.59
61035;BME280;46916;40.564;-7.958;2023-07-20T02:36:20;97431.00;;;20.46;70.46
61035;BME280;46916;40.564;-7.958;2023-07-20T02:38:20;97430.38;;;20.44;70.34
61035;BME280;46916;40.564;-7.958;2023-07-20T02:40:21;97427.09;;;20.42;70.45
61035;BME280;46916;40.564;-7.958;2023-07-20T02:42:22;97428.28;;;20.39;70.04
61035;BME280;46916;40.564;-7.958;2023-07-20T02:44:24;97429.47;;;20.37;70.35
61035;BME280;46916;40.564;-7.958;2023-07-20T02:46:24;97422.91;;;20.33;70.18
61035;BME280;46916;40.564;-7.958;2023-07-20T02:48:25;97418.59;;;20.32;70.46
61035;BME280;46916;40.564;-7.958;2023-07-20T02:50:25;97420.56;;;20.23;70.97
61035;BME280;46916;40.564;-7.958;2023-07-20T02:52:26;97412.97;;;20.20;71.13
61035;BME280;46916;40.564;-7.958;2023-07-20T02:54:26;97409.94;;;20.23;71.31
61035;BME280;46916;40.564;-7.958;2023-07-20T02:56:27;97409.94;;;20.23;71.00
61035;BME280;46916;40.564;-7.958;2023-07-20T02:58:27;97409.75;;;20.24;71.06
61035;BME280;46916;40.564;-7.958;2023-07-20T03:00:28;97407.53;;;20.28;71.02
61035;BME280;46916;40.564;-7.958;2023-07-20T03:02:29;97412.66;;;20.29;70.97
61035;BME280;46916;40.564;-7.958;2023-07-20T03:04:30;97407.06;;;20.24;71.09
61035;BME280;46916;40.564;-7.958;2023-07-20T03:06:30;97406.25;;;20.24;71.01
61035;BME280;46916;40.564;-7.958;2023-07-20T03:08:31;97408.75;;;20.25;70.90
61035;BME280;46916;40.564;-7.958;2023-07-20T03:10:31;97400.47;;;20.14;71.19
61035;BME280;46916;40.564;-7.958;2023-07-20T03:12:32;97404.13;;;20.13;71.64
61035;BME280;46916;40.564;-7.958;2023-07-20T03:14:34;97410.44;;;20.12;71.95
61035;BME280;46916;40.564;-7.958;2023-07-20T03:16:34;97404.13;;;20.13;71.55
61035;BME280;46916;40.564;-7.958;2023-07-20T03:18:35;97399.44;;;20.15;71.56
61035;BME280;46916;40.564;-7.958;2023-07-20T03:20:36;97395.28;;;20.06;71.72
61035;BME280;46916;40.564;-7.958;2023-07-20T03:22:37;97396.47;;;20.03;71.76
61035;BME280;46916;40.564;-7.958;2023-07-20T03:24:37;97396.28;;;20.04;71.82
61035;BME280;46916;40.564;-7.958;2023-07-20T03:26:38;97399.56;;;20.07;71.63
61035;BME280;46916;40.564;-7.958;2023-07-20T03:28:41;97398.53;;;20.08;71.78
61035;BME280;46916;40.564;-7.958;2023-07-20T03:30:44;97399.56;;;20.07;71.77
61035;BME280;46916;40.564;-7.958;2023-07-20T03:32:45;97403.69;;;20.09;71.43
61035;BME280;46916;40.564;-7.958;2023-07-20T03:34:45;97399.81;;;20.12;71.71
61035;BME280;46916;40.564;-7.958;2023-07-20T03:36:48;97398.63;;;20.14;71.39
61035;BME280;46916;40.564;-7.958;2023-07-20T03:38:48;97396.78;;;20.15;71.20
61035;BME280;46916;40.564;-7.958;2023-07-20T03:42:51;97394.13;;;20.15;71.48
61035;BME280;46916;40.564;-7.958;2023-07-20T03:44:51;97389.63;;;20.15;71.39
61035;BME280;46916;40.564;-7.958;2023-07-20T03:46:52;97390.44;;;20.16;71.44
61035;BME280;46916;40.564;-7.958;2023-07-20T03:48:52;97382.47;;;20.16;71.55
61035;BME280;46916;40.564;-7.958;2023-07-20T03:50:53;97384.13;;;20.17;71.33
61035;BME280;46916;40.564;-7.958;2023-07-20T03:52:54;97382.47;;;20.16;71.37
61035;BME280;46916;40.564;-7.958;2023-07-20T03:54:54;97377.16;;;20.16;71.32
61035;BME280;46916;40.564;-7.958;2023-07-20T03:56:55;97378.16;;;20.15;71.58
61035;BME280;46916;40.564;-7.958;2023-07-20T03:58:55;97376.53;;;20.14;71.36
61035;BME280;46916;40.564;-7.958;2023-07-20T04:00:56;97375.25;;;20.10;71.74
61035;BME280;46916;40.564;-7.958;2023-07-20T04:02:57;97375.63;;;20.07;71.64
61035;BME280;46916;40.564;-7.958;2023-07-20T04:04:58;97378.31;;;20.07;71.91
61035;BME280;46916;40.564;-7.958;2023-07-20T04:06:58;97383.81;;;20.05;72.14
61035;BME280;46916;40.564;-7.958;2023-07-20T04:08:59;97383.16;;;20.03;72.35
61035;BME280;46916;40.564;-7.958;2023-07-20T04:11:01;97385.00;;;20.02;72.40
61035;BME280;46916;40.564;-7.958;2023-07-20T04:13:01;97379.69;;;20.02;72.24
61035;BME280;46916;40.564;-7.958;2023-07-20T04:15:02;97378.44;;;19.98;72.75
61035;BME280;46916;40.564;-7.958;2023-07-20T04:17:04;97381.91;;;19.99;72.57
61035;BME280;46916;40.564;-7.958;2023-07-20T04:19:05;97380.88;;;20.00;73.02
61035;BME280;46916;40.564;-7.958;2023-07-20T04:21:07;97385.81;;;20.03;72.84
61035;BME280;46916;40.564;-7.958;2023-07-20T04:23:08;97380.34;;;20.04;72.65
61035;BME280;46916;40.564;-7.958;2023-07-20T04:25:08;97379.50;;;20.04;72.88
61035;BME280;46916;40.564;-7.958;2023-07-20T04:27:10;97382.16;;;20.04;72.86
61035;BME280;46916;40.564;-7.958;2023-07-20T04:29:10;97379.69;;;20.02;72.81
61035;BME280;46916;40.564;-7.958;2023-07-20T04:31:30;97385.38;;;19.99;72.95
61035;BME280;46916;40.564;-7.958;2023-07-20T04:33:33;97381.09;;;19.98;73.03
61035;BME280;46916;40.564;-7.958;2023-07-20T04:37:49;97384.94;;;19.96;72.98
61035;BME280;46916;40.564;-7.958;2023-07-20T04:39:53;97387.78;;;19.94;73.25
61035;BME280;46916;40.564;-7.958;2023-07-20T04:41:53;97383.66;;;19.92;72.98
61035;BME280;46916;40.564;-7.958;2023-07-20T04:43:54;97388.16;;;19.91;73.03
61035;BME280;46916;40.564;-7.958;2023-07-20T04:46:03;97391.22;;;19.88;73.60
61035;BME280;46916;40.564;-7.958;2023-07-20T04:48:08;97377.75;;;19.90;73.14
61035;BME280;46916;40.564;-7.958;2023-07-20T04:50:09;97383.66;;;19.92;72.92
61035;BME280;46916;40.564;-7.958;2023-07-20T04:52:09;97386.16;;;19.93;72.47
61035;BME280;46916;40.564;-7.958;2023-07-20T04:54:10;97384.53;;;19.92;72.57
61035;BME280;46916;40.564;-7.958;2023-07-20T04:56:12;97379.56;;;19.89;72.69
61035;BME280;46916;40.564;-7.958;2023-07-20T04:58:12;97378.94;;;19.87;72.75
61035;BME280;46916;40.564;-7.958;2023-07-20T05:00:13;97378.94;;;19.87;73.07
61035;BME280;46916;40.564;-7.958;2023-07-20T05:02:14;97374.44;;;19.88;72.79
61035;BME280;46916;40.564;-7.958;2023-07-20T05:04:15;97382.41;;;19.88;72.51
61035;BME280;46916;40.564;-7.958;2023-07-20T05:06:15;97387.91;;;19.86;72.52
61035;BME280;46916;40.564;-7.958;2023-07-20T05:08:16;97377.22;;;19.79;72.92
61035;BME280;46916;40.564;-7.958;2023-07-20T05:10:17;97383.75;;;19.77;72.91
61035;BME280;46916;40.564;-7.958;2023-07-20T05:12:18;97380.28;;;19.76;72.59
61035;BME280;46916;40.564;-7.958;2023-07-20T05:14:18;97369.66;;;19.76;72.78
61035;BME280;46916;40.564;-7.958;2023-07-20T05:16:20;97385.13;;;19.73;73.12
61035;BME280;46916;40.564;-7.958;2023-07-20T05:18:23;97385.50;;;19.70;72.96
61035;BME280;46916;40.564;-7.958;2023-07-20T05:20:24;97381.81;;;19.71;72.87
61035;BME280;46916;40.564;-7.958;2023-07-20T05:22:24;97381.66;;;19.72;72.95
61035;BME280;46916;40.564;-7.958;2023-07-20T05:24:25;97377.16;;;19.73;72.97
61035;BME280;46916;40.564;-7.958;2023-07-20T05:26:25;97378.81;;;19.74;73.00
61035;BME280;46916;40.564;-7.958;2023-07-20T05:28:26;97381.47;;;19.74;73.13
61035;BME280;46916;40.564;-7.958;2023-07-20T05:30:27;97388.41;;;19.75;73.06
61035;BME280;46916;40.564;-7.958;2023-07-20T05:32:29;97385.75;;;19.75;73.15
61035;BME280;46916;40.564;-7.958;2023-07-20T05:34:29;97387.44;;;19.76;73.65
61035;BME280;46916;40.564;-7.958;2023-07-20T05:36:30;97388.03;;;19.78;73.67
61035;BME280;46916;40.564;-7.958;2023-07-20T05:38:31;97391.16;;;19.82;73.21
61035;BME280;46916;40.564;-7.958;2023-07-20T05:40:31;97394.81;;;19.81;73.19
61035;BME280;46916;40.564;-7.958;2023-07-20T05:42:32;97390.50;;;19.79;73.30
61035;BME280;46916;40.564;-7.958;2023-07-20T05:44:33;97387.03;;;19.79;73.49
61035;BME280;46916;40.564;-7.958;2023-07-20T05:46:33;97392.75;;;19.76;73.59
61035;BME280;46916;40.564;-7.958;2023-07-20T05:48:34;97395.13;;;19.71;73.84
61035;BME280;46916;40.564;-7.958;2023-07-20T05:50:34;97394.66;;;19.67;73.81
61035;BME280;46916;40.564;-7.958;2023-07-20T05:52:34;97394.88;;;19.66;73.82
61035;BME280;46916;40.564;-7.958;2023-07-20T05:54:35;97402.84;;;19.66;73.88
61035;BME280;46916;40.564;-7.958;2023-07-20T05:56:35;97395.22;;;19.63;73.87
61035;BME280;46916;40.564;-7.958;2023-07-20T05:58:36;97409.53;;;19.62;73.94
61035;BME280;46916;40.564;-7.958;2023-07-20T06:00:37;97415.84;;;19.61;73.88
61035;BME280;46916;40.564;-7.958;2023-07-20T06:02:38;97412.53;;;19.59;74.67
61035;BME280;46916;40.564;-7.958;2023-07-20T06:04:38;97415.84;;;19.61;75.23
61035;BME280;46916;40.564;-7.958;2023-07-20T06:06:39;97414.84;;;19.62;74.74
61035;BME280;46916;40.564;-7.958;2023-07-20T06:08:40;97411.16;;;19.63;74.69
61035;BME280;46916;40.564;-7.958;2023-07-20T06:10:40;97413.66;;;19.64;74.72
61035;BME280;46916;40.564;-7.958;2023-07-20T06:12:40;97411.47;;;19.68;74.36
61035;BME280;46916;40.564;-7.958;2023-07-20T06:14:41;97418.41;;;19.69;74.59
61035;BME280;46916;40.564;-7.958;2023-07-20T06:16:42;97425.72;;;19.67;74.69
61035;BME280;46916;40.564;-7.958;2023-07-20T06:18:42;97428.59;;;19.65;75.18
61035;BME280;46916;40.564;-7.958;2023-07-20T06:20:42;97424.09;;;19.66;75.40
61035;BME280;46916;40.564;-7.958;2023-07-20T06:22:48;97421.44;;;19.66;75.67
61035;BME280;46916;40.564;-7.958;2023-07-20T06:24:49;97424.91;;;19.66;75.95
61035;BME280;46916;40.564;-7.958;2023-07-20T06:26:49;97433.91;;;19.65;75.76
61035;BME280;46916;40.564;-7.958;2023-07-20T06:28:50;97429.59;;;19.64;76.11
61035;BME280;46916;40.564;-7.958;2023-07-20T06:30:50;97434.91;;;19.64;75.90
61035;BME280;46916;40.564;-7.958;2023-07-20T06:32:51;97434.72;;;19.66;76.15
61035;BME280;46916;40.564;-7.958;2023-07-20T06:34:52;97436.34;;;19.67;75.78
61035;BME280;46916;40.564;-7.958;2023-07-20T06:36:52;97443.34;;;19.68;76.31
61035;BME280;46916;40.564;-7.958;2023-07-20T06:38:53;97442.31;;;19.69;75.99
61035;BME280;46916;40.564;-7.958;2023-07-20T06:40:53;97444.16;;;19.68;76.18
61035;BME280;46916;40.564;-7.958;2023-07-20T06:42:54;97441.31;;;19.70;76.18
61035;BME280;46916;40.564;-7.958;2023-07-20T06:44:56;97440.69;;;19.68;76.69
61035;BME280;46916;40.564;-7.958;2023-07-20T06:46:56;97442.69;;;19.66;76.27
61035;BME280;46916;40.564;-7.958;2023-07-20T06:48:57;97449.47;;;19.68;76.24
61035;BME280;46916;40.564;-7.958;2023-07-20T06:50:57;97448.66;;;19.68;76.27
61035;BME280;46916;40.564;-7.958;2023-07-20T06:52:58;97449.47;;;19.68;76.12
61035;BME280;46916;40.564;-7.958;2023-07-20T06:54:59;97439.84;;;19.67;75.78
61035;BME280;46916;40.564;-7.958;2023-07-20T06:56:59;97446.97;;;19.67;76.29
61035;BME280;46916;40.564;-7.958;2023-07-20T06:59:00;97448.66;;;19.68;75.84
61035;BME280;46916;40.564;-7.958;2023-07-20T07:01:06;97443.34;;;19.68;75.91
61035;BME280;46916;40.564;-7.958;2023-07-20T07:03:09;97446.00;;;19.68;75.77
61035;BME280;46916;40.564;-7.958;2023-07-20T07:05:10;97451.94;;;19.70;75.81
61035;BME280;46916;40.564;-7.958;2023-07-20T07:07:10;97456.88;;;19.73;76.04
61035;BME280;46916;40.564;-7.958;2023-07-20T07:09:11;97459.34;;;19.74;76.03
61035;BME280;46916;40.564;-7.958;2023-07-20T07:11:11;97465.94;;;19.78;75.82
61035;BME280;46916;40.564;-7.958;2023-07-20T07:13:12;97463.28;;;19.78;76.01
61035;BME280;46916;40.564;-7.958;2023-07-20T07:15:12;97464.75;;;19.81;75.84
61035;BME280;46916;40.564;-7.958;2023-07-20T07:17:13;97472.34;;;19.84;75.31
61035;BME280;46916;40.564;-7.958;2023-07-20T07:19:18;97467.03;;;19.84;75.25
61035;BME280;46916;40.564;-7.958;2023-07-20T07:21:19;97465.56;;;19.82;75.16
61035;BME280;46916;40.564;-7.958;2023-07-20T07:23:20;97468.03;;;19.83;75.72
61035;BME280;46916;40.564;-7.958;2023-07-20T07:25:21;97466.19;;;19.84;75.10
61035;BME280;46916;40.564;-7.958;2023-07-20T07:27:21;97467.03;;;19.84;75.40
61035;BME280;46916;40.564;-7.958;2023-07-20T07:29:21;97465.00;;;19.86;75.40
61035;BME280;46916;40.564;-7.958;2023-07-20T07:31:22;97470.31;;;19.86;75.50
61035;BME280;46916;40.564;-7.958;2023-07-20T07:33:23;97461.63;;;19.77;75.82
61035;BME280;46916;40.564;-7.958;2023-07-20T07:35:24;97465.66;;;19.88;75.97
61035;BME280;46916;40.564;-7.958;2023-07-20T07:37:24;97472.16;;;20.07;75.12
61035;BME280;46916;40.564;-7.958;2023-07-20T07:39:25;97470.41;;;20.14;74.86
61035;BME280;46916;40.564;-7.958;2023-07-20T07:41:26;97464.28;;;20.14;74.12
61035;BME280;46916;40.564;-7.958;2023-07-20T07:43:27;97465.47;;;20.11;74.64
61035;BME280;46916;40.564;-7.958;2023-07-20T07:45:27;97472.41;;;20.12;74.59
61035;BME280;46916;40.564;-7.958;2023-07-20T07:47:28;97478.69;;;20.04;74.48
61035;BME280;46916;40.564;-7.958;2023-07-20T07:49:28;97481.47;;;19.96;74.88
61035;BME280;46916;40.564;-7.958;2023-07-20T07:51:29;97482.00;;;19.92;75.38
61035;BME280;46916;40.564;-7.958;2023-07-20T07:53:29;97481.19;;;19.91;75.35
61035;BME280;46916;40.564;-7.958;2023-07-20T07:55:30;97487.16;;;19.93;75.11
61035;BME280;46916;40.564;-7.958;2023-07-20T07:57:30;97488.53;;;19.89;74.82
61035;BME280;46916;40.564;-7.958;2023-07-20T07:59:31;97481.41;;;19.75;75.46
61035;BME280;46916;40.564;-7.958;2023-07-20T08:01:36;97481.34;;;19.68;75.40
61035;BME280;46916;40.564;-7.958;2023-07-20T08:03:37;97478.31;;;19.71;75.64
61035;BME280;46916;40.564;-7.958;2023-07-20T08:05:37;97482.19;;;19.69;76.46
61035;BME280;46916;40.564;-7.958;2023-07-20T08:07:38;97483.81;;;19.70;76.05
61035;BME280;46916;40.564;-7.958;2023-07-20T08:09:38;97487.22;;;19.64;75.87
61035;BME280;46916;40.564;-7.958;2023-07-20T08:11:39;97488.41;;;19.61;76.10
61035;BME280;46916;40.564;-7.958;2023-07-20T08:13:40;97488.88;;;19.65;75.64
61035;BME280;46916;40.564;-7.958;2023-07-20T08:15:45;97488.50;;;19.68;75.51
61035;BME280;46916;40.564;-7.958;2023-07-20T08:17:46;97483.00;;;19.69;74.86
61035;BME280;46916;40.564;-7.958;2023-07-20T08:19:48;97486.84;;;19.67;75.31
61035;BME280;46916;40.564;-7.958;2023-07-20T08:21:49;97491.78;;;19.70;75.25
61035;BME280;46916;40.564;-7.958;2023-07-20T08:23:49;97487.13;;;19.72;75.39
61035;BME280;46916;40.564;-7.958;2023-07-20T08:25:50;97490.84;;;19.77;75.05
61035;BME280;46916;40.564;-7.958;2023-07-20T08:27:50;97490.38;;;19.89;74.50
61035;BME280;46916;40.564;-7.958;2023-07-20T08:29:51;97487.03;;;20.01;73.83
61035;BME280;46916;40.564;-7.958;2023-07-20T08:31:51;97497.31;;;20.04;73.52
61035;BME280;46916;40.564;-7.958;2023-07-20T08:33:52;97499.78;;;20.06;72.92
61035;BME280;46916;40.564;-7.958;2023-07-20T08:35:52;97502.22;;;20.08;72.66
61035;BME280;46916;40.564;-7.958;2023-07-20T08:37:53;97502.22;;;20.08;72.80
61035;BME280;46916;40.564;-7.958;2023-07-20T08:39:54;97493.44;;;20.07;73.02
61035;BME280;46916;40.564;-7.958;2023-07-20T08:41:54;97496.75;;;20.09;72.98
61035;BME280;46916;40.564;-7.958;2023-07-20T08:43:56;97495.16;;;20.15;73.22
61035;BME280;46916;40.564;-7.958;2023-07-20T08:45:57;97496.06;;;20.22;72.57
61035;BME280;46916;40.564;-7.958;2023-07-20T08:47:58;97500.59;;;20.28;72.44
61035;BME280;46916;40.564;-7.958;2023-07-20T08:49:58;97499.63;;;20.29;72.14
61035;BME280;46916;40.564;-7.958;2023-07-20T08:51:59;97492.81;;;20.26;71.66
61035;BME280;46916;40.564;-7.958;2023-07-20T08:54:00;97492.00;;;20.26;71.59
61035;BME280;46916;40.564;-7.958;2023-07-20T08:56:00;97495.28;;;20.28;72.01
61035;BME280;46916;40.564;-7.958;2023-07-20T08:58:01;97497.00;;;20.36;71.63
61035;BME280;46916;40.564;-7.958;2023-07-20T09:00:03;97495.59;;;20.40;71.35
61035;BME280;46916;40.564;-7.958;2023-07-20T09:02:12;97489.09;;;20.42;70.84
61035;BME280;46916;40.564;-7.958;2023-07-20T09:04:16;97503.59;;;20.40;71.32
61035;BME280;46916;40.564;-7.958;2023-07-20T09:06:17;97502.97;;;20.38;71.25
61035;BME280;46916;40.564;-7.958;2023-07-20T09:08:17;97505.06;;;20.42;71.08
61035;BME280;46916;40.564;-7.958;2023-07-20T09:10:18;97510.00;;;20.45;70.40
61035;BME280;46916;40.564;-7.958;2023-07-20T09:12:18;97508.31;;;20.44;71.01
61035;BME280;46916;40.564;-7.958;2023-07-20T09:14:19;97498.50;;;20.45;70.60
61035;BME280;46916;40.564;-7.958;2023-07-20T09:16:19;97501.56;;;20.42;70.72
61035;BME280;46916;40.564;-7.958;2023-07-20T09:18:27;97503.41;;;20.41;70.85
61035;BME280;46916;40.564;-7.958;2023-07-20T09:20:28;97511.19;;;20.43;70.69
61035;BME280;46916;40.564;-7.958;2023-07-20T09:22:31;97509.94;;;20.39;71.29
61035;BME280;46916;40.564;-7.958;2023-07-20T09:24:31;97507.06;;;20.19;71.68
61035;BME280;46916;40.564;-7.958;2023-07-20T09:26:32;97506.81;;;20.14;71.59
61035;BME280;46916;40.564;-7.958;2023-07-20T09:28:44;97502.69;;;20.11;71.71
61035;BME280;46916;40.564;-7.958;2023-07-20T09:30:45;97495.16;;;20.15;71.58
61035;BME280;46916;40.564;-7.958;2023-07-20T09:32:46;97496.06;;;20.22;71.76
61035;BME280;46916;40.564;-7.958;2023-07-20T09:34:47;97500.44;;;20.29;71.18
61035;BME280;46916;40.564;-7.958;2023-07-20T09:36:49;97503.25;;;20.28;71.02
61035;BME280;46916;40.564;-7.958;2023-07-20T09:38:51;97508.97;;;20.25;71.22
61035;BME280;46916;40.564;-7.958;2023-07-20T09:40:51;97501.38;;;20.22;71.28
61035;BME280;46916;40.564;-7.958;2023-07-20T09:42:53;97500.72;;;20.20;71.52
61035;BME280;46916;40.564;-7.958;2023-07-20T09:45:01;97509.16;;;20.23;71.45
61035;BME280;46916;40.564;-7.958;2023-07-20T09:47:03;97503.72;;;20.32;70.88
61035;BME280;46916;40.564;-7.958;2023-07-20T09:49:03;97513.78;;;20.36;71.03
61035;BME280;46916;40.564;-7.958;2023-07-20T09:51:08;97511.13;;;20.36;70.96
61035;BME280;46916;40.564;-7.958;2023-07-20T09:53:12;97508.31;;;20.44;70.95
61035;BME280;46916;40.564;-7.958;2023-07-20T09:55:19;97516.88;;;20.55;70.86
61035;BME280;46916;40.564;-7.958;2023-07-20T09:57:21;97512.44;;;20.62;69.90
61035;BME280;46916;40.564;-7.958;2023-07-20T09:59:23;97510.38;;;20.64;70.02
61035;BME280;46916;40.564;-7.958;2023-07-20T10:01:23;97510.47;;;20.70;69.61
61035;BME280;46916;40.564;-7.958;2023-07-20T10:03:27;97507.84;;;20.77;69.45
61035;BME280;46916;40.564;-7.958;2023-07-20T10:05:28;97516.09;;;20.82;69.34
61035;BME280;46916;40.564;-7.958;2023-07-20T10:07:32;97513.00;;;20.85;69.29
61035;BME280;46916;40.564;-7.958;2023-07-20T10:09:36;97517.34;;;20.86;69.48
61035;BME280;46916;40.564;-7.958;2023-07-20T10:11:40;97517.91;;;20.82;69.46
61035;BME280;46916;40.564;-7.958;2023-07-20T10:13:43;97509.91;;;20.82;69.61
61035;BME280;46916;40.564;-7.958;2023-07-20T10:15:54;97507.06;;;20.83;69.72
61035;BME280;46916;40.564;-7.958;2023-07-20T10:20:08;97517.06;;;20.81;69.45
61035;BME280;46916;40.564;-7.958;2023-07-20T10:22:19;97514.03;;;20.84;69.59
61035;BME280;46916;40.564;-7.958;2023-07-20T10:24:23;97515.31;;;20.88;69.65
61035;BME280;46916;40.564;-7.958;2023-07-20T10:26:25;97519.03;;;20.94;69.36
61035;BME280;46916;40.564;-7.958;2023-07-20T10:28:26;97516.19;;;20.95;69.50
61035;BME280;46916;40.564;-7.958;2023-07-20T10:30:26;97521.13;;;20.98;69.25
61035;BME280;46916;40.564;-7.958;2023-07-20T10:32:27;97522.75;;;20.99;69.11
61035;BME280;46916;40.564;-7.958;2023-07-20T10:34:28;97526.44;;;20.98;69.52
61035;BME280;46916;40.564;-7.958;2023-07-20T10:36:29;97522.94;;;20.98;69.66
61035;BME280;46916;40.564;-7.958;2023-07-20T10:38:42;97521.31;;;20.97;69.48
61035;BME280;46916;40.564;-7.958;2023-07-20T10:40:55;97522.13;;;20.97;69.80
61035;BME280;46916;40.564;-7.958;2023-07-20T10:42:59;97522.75;;;20.99;69.85
61035;BME280;46916;40.564;-7.958;2023-07-20T10:45:00;97527.06;;;21.00;69.64
61035;BME280;46916;40.564;-7.958;2023-07-20T10:47:02;97527.72;;;21.02;69.60
61035;BME280;46916;40.564;-7.958;2023-07-20T10:49:03;97526.31;;;21.07;69.59
61035;BME280;46916;40.564;-7.958;2023-07-20T10:51:14;97519.56;;;21.11;69.61